Time;durP1;ratioP1;P1;durP2;ratioP2;P2;SDS_P1;SDS_P2;PMS_P1;PMS_P2;Temp;Humidity;BMP_temperature;BMP_pressure;BME280_temperature;BME280_humidity;BME280_pressure;Samples;Min_cycle;Max_cycle;Signal;HPM_P1;HPM_P2
2023/07/01 00:02:08;;;;;;;4.65;2.40;;;20.40;57.20;;;;;;5085637;28;20029;-68
2023/07/01 00:04:33;;;;;;;4.10;1.80;;;20.40;57.30;;;;;;5082186;28;20024;-68
2023/07/01 00:06:59;;;;;;;4.72;2.17;;;20.40;57.20;;;;;;5083233;28;20032;-68
2023/07/01 00:09:24;;;;;;;4.32;1.95;;;20.50;57.20;;;;;;5081513;28;20070;-68
2023/07/01 00:11:50;;;;;;;3.42;2.08;;;20.40;57.00;;;;;;5081756;28;20021;-68
2023/07/01 00:14:16;;;;;;;4.55;2.20;;;20.40;57.00;;;;;;5089236;28;20032;-69
2023/07/01 00:16:41;;;;;;;4.03;2.17;;;20.40;56.70;;;;;;5081844;28;20023;-69
2023/07/01 00:19:07;;;;;;;5.05;2.00;;;20.40;56.20;;;;;;5079524;28;20552;-68
2023/07/01 00:21:33;;;;;;;4.85;2.20;;;20.30;56.30;;;;;;5091063;28;20028;-68
2023/07/01 00:23:58;;;;;;;4.43;1.80;;;20.30;56.00;;;;;;5088838;28;20028;-67
2023/07/01 00:26:25;;;;;;;4.70;2.13;;;20.30;56.10;;;;;;5096225;28;20028;-68
2023/07/01 00:28:52;;;;;;;6.00;2.17;;;20.30;56.00;;;;;;5089898;28;20384;-68
2023/07/01 00:31:18;;;;;;;4.35;1.90;;;20.30;55.90;;;;;;5090539;28;20390;-68
2023/07/01 00:33:43;;;;;;;4.18;2.03;;;20.30;55.90;;;;;;5075886;28;20109;-68
2023/07/01 00:36:09;;;;;;;4.30;1.85;;;20.40;55.90;;;;;;5075782;28;20034;-67
2023/07/01 00:38:35;;;;;;;5.15;2.08;;;20.40;55.80;;;;;;5076562;28;20023;-67
2023/07/01 00:41:00;;;;;;;3.97;2.40;;;20.50;55.70;;;;;;5092417;28;20032;-67
2023/07/01 00:43:26;;;;;;;4.80;2.00;;;20.40;55.40;;;;;;5089824;28;20030;-68
2023/07/01 00:45:51;;;;;;;4.88;2.05;;;20.40;55.30;;;;;;5096325;28;20522;-68
2023/07/01 00:48:28;;;;;;;3.67;1.85;;;20.40;55.40;;;;;;5087556;28;20032;-68
2023/07/01 00:50:54;;;;;;;2.38;1.70;;;20.40;55.60;;;;;;5090236;28;20020;-68
2023/07/01 00:53:21;;;;;;;4.20;1.92;;;20.40;55.50;;;;;;5079539;28;20086;-68
2023/07/01 00:55:46;;;;;;;4.57;2.00;;;20.40;55.40;;;;;;5081811;28;20059;-68
2023/07/01 00:58:13;;;;;;;3.55;1.75;;;20.40;55.40;;;;;;5087431;28;20702;-69
2023/07/01 01:00:38;;;;;;;2.67;1.90;;;20.40;55.30;;;;;;5101339;28;20103;-69
2023/07/01 01:03:22;;;;;;;2.58;1.60;;;20.40;55.10;;;;;;5088680;28;20102;-70
2023/07/01 01:06:16;;;;;;;3.70;2.00;;;20.40;55.20;;;;;;5074134;28;20024;-69
2023/07/01 01:09:21;;;;;;;2.88;1.70;;;20.30;55.00;;;;;;5079978;28;20394;-69
2023/07/01 01:11:49;;;;;;;4.03;1.92;;;20.40;55.00;;;;;;5083115;28;20066;-69
2023/07/01 01:14:16;;;;;;;4.75;1.90;;;20.40;55.10;;;;;;5087093;28;20571;-69
2023/07/01 01:16:42;;;;;;;4.22;2.10;;;20.30;55.40;;;;;;5089922;28;20052;-69
2023/07/01 01:19:35;;;;;;;6.97;1.90;;;20.20;55.60;;;;;;5103089;28;20069;-67
2023/07/01 01:22:08;;;;;;;4.05;2.15;;;20.20;56.10;;;;;;5083309;28;20414;-68
2023/07/01 01:24:37;;;;;;;5.22;2.45;;;20.10;56.40;;;;;;5075113;28;20541;-68
2023/07/01 01:27:06;;;;;;;4.85;2.20;;;20.10;56.70;;;;;;5071224;28;20493;-68
2023/07/01 01:29:32;;;;;;;3.08;2.05;;;20.10;56.70;;;;;;5086933;28;20127;-69
2023/07/01 01:31:57;;;;;;;4.50;2.20;;;20.10;56.80;;;;;;5073659;28;20124;-69
2023/07/01 01:34:23;;;;;;;4.10;2.00;;;20.20;56.80;;;;;;5088833;28;20111;-68
2023/07/01 01:36:52;;;;;;;3.75;2.10;;;20.20;56.60;;;;;;5094905;28;20023;-68
2023/07/01 01:39:23;;;;;;;3.22;1.88;;;20.20;56.60;;;;;;5086830;28;20020;-68
2023/07/01 01:41:57;;;;;;;4.28;2.00;;;20.10;56.70;;;;;;5083657;28;20597;-68
2023/07/01 01:44:35;;;;;;;3.45;1.92;;;20.10;56.80;;;;;;5087574;28;20032;-67
2023/07/01 01:47:02;;;;;;;2.90;1.63;;;20.10;57.10;;;;;;5090461;28;20486;-68
2023/07/01 01:49:29;;;;;;;4.90;1.98;;;20.10;57.10;;;;;;5082673;28;20035;-68
2023/07/01 01:51:56;;;;;;;3.35;1.90;;;20.10;57.20;;;;;;5076967;28;20047;-66
2023/07/01 01:54:23;;;;;;;4.53;2.05;;;20.10;57.20;;;;;;5084596;28;20023;-68
2023/07/01 01:56:51;;;;;;;5.05;2.10;;;20.10;57.30;;;;;;5093632;28;20091;-69
2023/07/01 01:59:17;;;;;;;4.13;1.90;;;20.10;57.20;;;;;;5100380;28;20028;-68
2023/07/01 02:01:42;;;;;;;4.60;1.65;;;20.10;57.30;;;;;;5097626;28;20026;-68
2023/07/01 02:04:08;;;;;;;4.20;2.15;;;20.10;57.90;;;;;;5101237;28;20024;-68
2023/07/01 02:06:34;;;;;;;4.80;2.13;;;20.10;57.50;;;;;;5081005;28;20032;-68
2023/07/01 02:08:59;;;;;;;4.10;2.10;;;20.00;57.80;;;;;;5081967;28;20086;-68
2023/07/01 02:11:25;;;;;;;4.10;1.83;;;20.00;58.10;;;;;;5081711;28;20099;-68
2023/07/01 02:13:51;;;;;;;4.55;1.95;;;20.00;58.30;;;;;;5088645;28;20016;-68
2023/07/01 02:16:16;;;;;;;4.80;2.05;;;20.00;58.60;;;;;;5109661;28;20055;-67
2023/07/01 02:18:42;;;;;;;5.07;2.30;;;19.90;59.00;;;;;;5090356;28;20081;-67
2023/07/01 02:21:07;;;;;;;3.58;2.08;;;19.90;59.30;;;;;;5081070;28;20099;-69
2023/07/01 02:23:33;;;;;;;5.00;2.40;;;19.80;59.60;;;;;;5070245;28;20082;-68
2023/07/01 02:25:59;;;;;;;4.63;1.70;;;19.80;59.80;;;;;;5089354;28;20107;-68
2023/07/01 02:28:24;;;;;;;4.38;2.10;;;19.80;60.00;;;;;;5089025;28;20372;-68
2023/07/01 02:30:50;;;;;;;4.95;2.45;;;19.80;60.50;;;;;;5087652;28;20114;-68
2023/07/01 02:33:15;;;;;;;3.63;2.10;;;19.80;61.10;;;;;;5088409;28;20020;-69
2023/07/01 02:35:41;;;;;;;3.53;2.30;;;19.80;61.50;;;;;;5076226;28;20416;-68
2023/07/01 02:38:08;;;;;;;5.50;2.40;;;19.70;61.70;;;;;;5070848;28;20028;-67
2023/07/01 02:40:33;;;;;;;5.82;2.17;;;19.60;62.60;;;;;;5078129;28;20039;-67
2023/07/01 02:42:59;;;;;;;4.13;2.10;;;19.50;63.80;;;;;;5070612;28;20412;-68
2023/07/01 02:45:25;;;;;;;3.92;1.83;;;19.40;64.70;;;;;;5080566;28;20032;-68
2023/07/01 02:47:51;;;;;;;3.08;1.88;;;19.40;65.10;;;;;;5089118;28;20402;-67
2023/07/01 02:50:16;;;;;;;4.28;1.80;;;19.30;65.80;;;;;;5082845;28;20024;-67
2023/07/01 02:52:42;;;;;;;3.65;1.73;;;19.30;66.00;;;;;;5101343;28;20397;-68
2023/07/01 02:55:08;;;;;;;3.95;1.80;;;19.30;66.00;;;;;;5082100;28;20035;-69
2023/07/01 02:57:34;;;;;;;4.15;1.83;;;19.30;66.20;;;;;;5089990;28;20457;-68
2023/07/01 02:59:59;;;;;;;3.42;1.88;;;19.40;66.40;;;;;;5091303;28;20054;-68
2023/07/01 03:02:25;;;;;;;4.07;1.90;;;19.30;66.50;;;;;;5081929;28;20124;-68
2023/07/01 03:04:51;;;;;;;3.60;2.10;;;19.30;66.80;;;;;;5084460;28;20062;-67
2023/07/01 03:07:16;;;;;;;7.55;2.05;;;19.30;66.90;;;;;;5078669;28;20547;-68
2023/07/01 03:09:42;;;;;;;3.80;1.95;;;19.30;67.10;;;;;;5091530;28;20108;-67
2023/07/01 03:12:07;;;;;;;4.22;2.00;;;19.30;67.10;;;;;;5087566;28;20028;-68
2023/07/01 03:14:33;;;;;;;2.40;1.80;;;19.30;67.20;;;;;;5093637;28;20029;-68
2023/07/01 03:16:59;;;;;;;4.25;2.08;;;19.30;67.20;;;;;;5078031;28;20032;-68
2023/07/01 03:19:24;;;;;;;2.42;1.60;;;19.30;67.40;;;;;;5084265;28;20161;-68
2023/07/01 03:21:50;;;;;;;3.47;1.75;;;19.30;67.50;;;;;;5089032;28;20095;-68
2023/07/01 03:24:15;;;;;;;4.20;1.70;;;19.30;67.70;;;;;;5096508;28;20452;-68
2023/07/01 03:26:42;;;;;;;2.95;1.88;;;19.30;68.10;;;;;;5095741;28;20171;-68
2023/07/01 03:29:08;;;;;;;4.38;2.10;;;19.30;68.20;;;;;;5098568;28;20092;-68
2023/07/01 03:31:33;;;;;;;1.70;1.42;;;19.20;68.70;;;;;;5094477;28;20111;-68
2023/07/01 03:33:59;;;;;;;2.40;1.52;;;19.30;69.10;;;;;;5096219;28;20055;-68
2023/07/01 03:36:25;;;;;;;3.28;1.70;;;19.30;69.30;;;;;;5092986;28;20020;-68
2023/07/01 03:38:51;;;;;;;3.85;2.00;;;19.30;69.30;;;;;;5077190;28;20017;-68
2023/07/01 03:41:16;;;;;;;3.60;2.13;;;19.30;70.10;;;;;;5077285;28;20567;-68
2023/07/01 03:43:42;;;;;;;4.35;2.00;;;19.10;71.00;;;;;;5085548;28;20456;-68
2023/07/01 03:46:07;;;;;;;3.20;1.90;;;19.00;71.70;;;;;;5103501;28;20027;-68
2023/07/01 03:48:34;;;;;;;4.65;1.80;;;19.00;72.00;;;;;;5075946;28;20121;-68
2023/07/01 03:51:00;;;;;;;3.15;1.90;;;18.90;72.50;;;;;;5084240;28;20032;-68
2023/07/01 03:53:25;;;;;;;2.25;1.80;;;18.90;73.40;;;;;;5093495;28;20039;-67
2023/07/01 03:55:51;;;;;;;4.10;1.90;;;18.90;73.50;;;;;;5093369;28;20028;-68
2023/07/01 03:58:21;;;;;;;4.45;2.33;;;18.80;73.80;;;;;;5084638;28;20031;-67
2023/07/01 04:00:48;;;;;;;3.55;1.83;;;18.80;74.30;;;;;;5105175;28;20364;-69
2023/07/01 04:03:13;;;;;;;2.47;1.80;;;18.80;74.40;;;;;;5091768;28;20111;-68
2023/07/01 04:05:39;;;;;;;3.47;2.50;;;18.90;74.50;;;;;;5090624;28;20107;-67
2023/07/01 04:08:04;;;;;;;4.70;2.30;;;18.80;75.40;;;;;;5095666;28;20023;-68
2023/07/01 04:10:30;;;;;;;3.50;2.10;;;18.70;75.70;;;;;;5095080;28;20024;-68
2023/07/01 04:12:57;;;;;;;3.03;2.05;;;18.70;76.00;;;;;;5079302;28;20510;-67
2023/07/01 04:15:24;;;;;;;4.93;2.15;;;18.60;76.10;;;;;;5075721;28;20039;-68
2023/07/01 04:17:50;;;;;;;3.92;2.03;;;18.60;76.40;;;;;;5088502;28;20016;-68
2023/07/01 04:20:19;;;;;;;4.78;2.03;;;18.60;76.30;;;;;;5091706;28;20027;-67
2023/07/01 04:22:45;;;;;;;2.60;1.77;;;18.70;76.30;;;;;;5096262;28;20048;-68
2023/07/01 04:25:11;;;;;;;3.00;1.80;;;18.70;76.60;;;;;;5077971;28;20028;-69
2023/07/01 04:27:37;;;;;;;3.30;1.73;;;18.70;76.90;;;;;;5084985;28;20043;-68
2023/07/01 04:30:04;;;;;;;3.70;2.20;;;18.70;76.80;;;;;;5081793;28;20048;-67
2023/07/01 04:32:29;;;;;;;2.72;1.88;;;18.60;77.40;;;;;;5085668;28;20024;-69
2023/07/01 04:34:55;;;;;;;5.60;2.33;;;18.60;77.40;;;;;;5088879;28;20522;-68
2023/07/01 04:37:21;;;;;;;3.22;1.92;;;18.60;78.20;;;;;;5089039;28;20020;-68
2023/07/01 04:39:46;;;;;;;3.17;1.65;;;18.50;78.20;;;;;;5097397;28;20599;-68
2023/07/01 04:42:12;;;;;;;4.18;2.00;;;18.60;78.20;;;;;;5085068;28;20549;-68
2023/07/01 04:44:38;;;;;;;3.30;1.95;;;18.60;78.30;;;;;;5091200;28;20085;-68
2023/07/01 04:47:04;;;;;;;2.83;2.15;;;18.50;78.80;;;;;;5077283;28;20539;-68
2023/07/01 04:49:29;;;;;;;2.75;2.00;;;18.50;79.70;;;;;;5080449;28;20032;-68
2023/07/01 04:51:56;;;;;;;5.53;2.20;;;18.50;79.80;;;;;;5084156;28;20035;-68
2023/07/01 04:54:21;;;;;;;2.58;1.90;;;18.40;80.30;;;;;;5071758;28;20032;-68
2023/07/01 04:56:47;;;;;;;2.53;1.77;;;18.40;80.50;;;;;;5083564;28;20027;-68
2023/07/01 04:59:13;;;;;;;3.33;2.35;;;18.40;80.90;;;;;;5093466;28;20760;-68
2023/07/01 05:01:38;;;;;;;3.15;1.98;;;18.40;81.40;;;;;;5091503;28;20063;-68
2023/07/01 05:04:04;;;;;;;2.38;1.85;;;18.40;82.00;;;;;;5083075;28;20115;-68
2023/07/01 05:06:31;;;;;;;3.72;2.28;;;18.30;82.60;;;;;;5071042;28;20036;-69
2023/07/01 05:08:57;;;;;;;3.25;2.08;;;18.20;83.10;;;;;;5089367;28;20024;-68
2023/07/01 05:11:23;;;;;;;3.35;1.98;;;18.20;83.40;;;;;;5077826;28;20081;-69
2023/07/01 05:13:48;;;;;;;2.92;2.03;;;18.20;83.60;;;;;;5090809;28;20016;-67
2023/07/01 05:16:14;;;;;;;3.92;2.13;;;18.20;84.10;;;;;;5088248;28;20529;-69
2023/07/01 05:18:40;;;;;;;3.00;2.10;;;18.20;84.40;;;;;;5080769;28;20151;-67
2023/07/01 05:21:05;;;;;;;1.90;1.70;;;18.20;84.80;;;;;;5071415;28;20107;-68
2023/07/01 05:23:31;;;;;;;1.83;1.60;;;18.20;85.00;;;;;;5080663;28;20020;-68
2023/07/01 05:25:56;;;;;;;4.45;2.30;;;18.20;84.90;;;;;;5091358;28;20024;-68
2023/07/01 05:28:22;;;;;;;2.03;1.60;;;18.20;85.20;;;;;;5087919;28;20081;-67
2023/07/01 05:30:47;;;;;;;3.08;2.15;;;18.10;85.50;;;;;;5089415;28;20022;-68
2023/07/01 05:33:13;;;;;;;3.35;1.88;;;18.10;85.90;;;;;;5076214;28;20025;-68
2023/07/01 05:35:39;;;;;;;2.78;1.90;;;18.10;86.00;;;;;;5099707;28;20567;-68
2023/07/01 05:38:09;;;;;;;3.00;2.10;;;18.10;86.10;;;;;;5078276;28;20081;-68
2023/07/01 05:40:34;;;;;;;2.63;2.10;;;18.10;86.70;;;;;;5073788;28;20053;-68
2023/07/01 05:43:00;;;;;;;3.97;2.17;;;18.10;86.80;;;;;;5081271;28;20056;-69
2023/07/01 05:45:26;;;;;;;2.88;2.10;;;18.10;86.90;;;;;;5077824;28;20021;-68
2023/07/01 05:47:51;;;;;;;3.38;2.28;;;18.10;87.30;;;;;;5088726;28;20020;-69
2023/07/01 05:50:17;;;;;;;1.77;1.60;;;18.10;87.70;;;;;;5085297;28;20097;-69
2023/07/01 05:52:42;;;;;;;2.95;2.50;;;18.00;87.80;;;;;;5083096;28;20048;-69
2023/07/01 05:55:08;;;;;;;2.25;1.92;;;18.00;88.20;;;;;;5106337;28;20027;-68
2023/07/01 05:57:34;;;;;;;2.67;2.20;;;17.90;88.60;;;;;;5111000;28;20595;-68
2023/07/01 06:00:01;;;;;;;1.80;1.70;;;18.00;88.60;;;;;;5089278;28;20020;-68
2023/07/01 06:02:27;;;;;;;2.15;1.73;;;18.00;88.70;;;;;;5074190;28;20025;-68
2023/07/01 06:04:53;;;;;;;3.78;1.80;;;18.00;88.40;;;;;;5074473;28;20539;-68
2023/07/01 06:07:19;;;;;;;5.82;2.40;;;18.00;88.60;;;;;;5085361;28;20112;-68
2023/07/01 06:09:48;;;;;;;3.05;2.28;;;18.10;88.70;;;;;;5093817;28;20035;-69
2023/07/01 06:12:14;;;;;;;2.60;2.35;;;18.00;88.90;;;;;;5089376;28;20058;-69
2023/07/01 06:14:39;;;;;;;3.22;2.08;;;18.00;89.30;;;;;;5078835;28;20060;-67
2023/07/01 06:17:06;;;;;;;2.33;2.13;;;18.00;89.80;;;;;;5070591;28;20016;-68
2023/07/01 06:19:31;;;;;;;2.08;1.70;;;18.00;89.60;;;;;;5070909;28;20485;-67
2023/07/01 06:21:57;;;;;;;2.30;1.73;;;18.10;89.40;;;;;;5073233;28;20107;-69
2023/07/01 06:24:23;;;;;;;1.70;1.60;;;18.20;89.20;;;;;;5074275;28;20107;-68
2023/07/01 06:26:48;;;;;;;1.95;1.77;;;18.30;88.80;;;;;;5083490;28;20483;-68
2023/07/01 06:29:14;;;;;;;2.22;1.77;;;18.30;88.60;;;;;;5086524;28;20071;-67
2023/07/01 06:31:40;;;;;;;2.40;1.60;;;18.30;88.40;;;;;;5096238;28;20016;-68
2023/07/01 06:34:12;;;;;;;2.08;1.75;;;18.30;88.40;;;;;;5088656;28;20463;-69
2023/07/01 06:36:38;;;;;;;2.05;1.58;;;18.40;88.30;;;;;;5070886;28;20033;-68
2023/07/01 06:39:04;;;;;;;3.15;1.75;;;18.40;88.40;;;;;;5075819;28;20465;-68
2023/07/01 06:41:30;;;;;;;2.65;1.85;;;18.40;88.40;;;;;;5087750;28;20039;-68
2023/07/01 06:43:55;;;;;;;3.38;2.20;;;18.40;88.60;;;;;;5072648;28;20479;-68
2023/07/01 06:46:21;;;;;;;2.38;1.90;;;18.40;89.00;;;;;;5086375;28;20031;-67
2023/07/01 06:48:46;;;;;;;2.75;2.05;;;18.40;89.00;;;;;;5091562;28;20039;-67
2023/07/01 06:51:13;;;;;;;1.90;1.70;;;18.40;89.20;;;;;;5080438;28;20515;-68
2023/07/01 06:53:39;;;;;;;2.40;1.77;;;18.40;89.30;;;;;;5080791;28;20043;-67
2023/07/01 06:56:06;;;;;;;3.28;2.20;;;18.40;89.20;;;;;;5088199;28;20020;-67
2023/07/01 06:58:32;;;;;;;2.05;1.80;;;18.40;89.20;;;;;;5101139;28;20024;-68
2023/07/01 07:00:57;;;;;;;2.20;1.67;;;18.40;89.40;;;;;;5090961;28;20035;-67
2023/07/01 07:03:23;;;;;;;2.05;1.80;;;18.40;89.40;;;;;;5076917;28;20020;-68
2023/07/01 07:05:49;;;;;;;1.80;1.50;;;18.40;89.60;;;;;;5083006;28;20024;-69
2023/07/01 07:08:14;;;;;;;2.50;1.75;;;18.40;89.40;;;;;;5083720;28;20024;-69
2023/07/01 07:10:40;;;;;;;2.22;1.80;;;18.50;89.10;;;;;;5077099;28;20024;-69
2023/07/01 07:13:06;;;;;;;2.58;1.55;;;18.50;89.20;;;;;;5082383;28;20039;-69
2023/07/01 07:15:33;;;;;;;2.10;1.77;;;18.60;89.30;;;;;;5082074;28;20028;-69
2023/07/01 07:18:01;;;;;;;2.40;1.63;;;18.60;89.10;;;;;;5089893;28;20025;-69
2023/07/01 07:20:26;;;;;;;1.83;1.73;;;18.60;89.40;;;;;;5085952;28;20035;-69
2023/07/01 07:22:52;;;;;;;2.35;1.73;;;18.60;89.40;;;;;;5073219;28;20021;-69
2023/07/01 07:25:17;;;;;;;1.73;1.60;;;18.60;89.60;;;;;;5093491;28;20651;-68
2023/07/01 07:27:44;;;;;;;3.13;1.45;;;18.60;89.60;;;;;;5092952;28;20028;-68
2023/07/01 07:30:12;;;;;;;1.70;1.60;;;18.70;89.50;;;;;;5081086;28;20031;-67
2023/07/01 07:32:38;;;;;;;2.28;1.90;;;18.70;89.80;;;;;;5077442;28;20073;-67
2023/07/01 07:35:04;;;;;;;3.03;2.20;;;18.70;90.00;;;;;;5075584;28;20426;-68
2023/07/01 07:37:30;;;;;;;2.67;1.70;;;18.60;90.00;;;;;;5077007;28;20032;-68
2023/07/01 07:39:58;;;;;;;2.15;1.90;;;18.60;90.10;;;;;;5080957;28;20017;-69
2023/07/01 07:42:24;;;;;;;1.77;1.60;;;18.70;90.10;;;;;;5081454;28;20028;-68
2023/07/01 07:44:50;;;;;;;2.10;1.90;;;18.60;90.10;;;;;;5076295;28;20045;-69
2023/07/01 07:47:15;;;;;;;2.17;1.67;;;18.60;90.20;;;;;;5082150;28;20539;-68
2023/07/01 07:49:41;;;;;;;2.47;1.60;;;18.50;90.30;;;;;;5087819;28;20035;-69
2023/07/01 07:52:07;;;;;;;2.78;1.50;;;18.50;90.30;;;;;;5089831;28;20036;-69
2023/07/01 07:54:33;;;;;;;2.50;1.85;;;18.50;90.30;;;;;;5081700;28;20035;-68
2023/07/01 07:57:01;;;;;;;1.42;1.33;;;18.50;90.30;;;;;;5083577;28;20024;-69
2023/07/01 07:59:27;;;;;;;1.83;1.60;;;18.60;90.30;;;;;;5084795;28;20031;-69
2023/07/01 08:01:54;;;;;;;1.70;1.60;;;18.60;90.40;;;;;;5086080;28;20046;-68
2023/07/01 08:04:20;;;;;;;1.83;1.60;;;18.60;90.40;;;;;;5082991;28;20103;-69
2023/07/01 08:06:46;;;;;;;1.90;1.70;;;18.60;90.40;;;;;;5086777;28;20032;-69
2023/07/01 08:09:12;;;;;;;1.92;1.77;;;18.50;90.40;;;;;;5088656;28;20028;-69
2023/07/01 08:11:37;;;;;;;2.42;2.20;;;18.50;90.50;;;;;;5085121;28;20032;-68
2023/07/01 08:14:03;;;;;;;2.17;1.70;;;18.50;90.80;;;;;;5080597;28;20107;-68
2023/07/01 08:16:28;;;;;;;2.00;1.80;;;18.40;90.90;;;;;;5077449;28;20417;-70
2023/07/01 08:18:54;;;;;;;2.05;1.85;;;18.50;90.80;;;;;;5083617;28;20035;-69
2023/07/01 08:21:20;;;;;;;2.85;2.22;;;18.50;90.90;;;;;;5086771;28;20017;-69
2023/07/01 08:23:45;;;;;;;2.80;1.90;;;18.40;91.00;;;;;;5086605;28;20016;-69
2023/07/01 08:26:11;;;;;;;2.00;1.80;;;18.40;91.20;;;;;;5091508;28;20028;-69
2023/07/01 08:28:36;;;;;;;1.90;1.80;;;18.40;91.30;;;;;;5089314;28;20028;-69
2023/07/01 08:31:04;;;;;;;2.33;1.88;;;18.40;91.40;;;;;;5088378;28;20060;-69
2023/07/01 08:33:29;;;;;;;1.80;1.70;;;18.40;91.50;;;;;;5087788;28;20024;-68
2023/07/01 08:35:57;;;;;;;2.05;1.83;;;18.50;91.50;;;;;;5086486;28;20048;-69
2023/07/01 08:38:23;;;;;;;2.35;1.80;;;18.50;91.50;;;;;;5091463;28;20030;-69
2023/07/01 08:40:52;;;;;;;1.60;1.50;;;18.50;91.60;;;;;;5082222;28;20032;-69
2023/07/01 08:43:23;;;;;;;1.75;1.65;;;18.60;91.60;;;;;;5093153;28;20085;-68
2023/07/01 08:45:54;;;;;;;1.80;1.70;;;18.60;91.50;;;;;;5083886;28;20029;-69
2023/07/01 08:48:22;;;;;;;1.75;1.65;;;18.60;91.60;;;;;;5088165;28;20024;-69
2023/07/01 08:51:06;;;;;;;2.03;1.63;;;18.70;91.60;;;;;;5089900;28;20028;-69
2023/07/01 08:53:32;;;;;;;1.75;1.65;;;18.70;91.50;;;;;;5089032;28;20040;-68
2023/07/01 08:55:59;;;;;;;1.50;1.40;;;18.80;91.60;;;;;;5084673;28;20031;-69
2023/07/01 08:58:26;;;;;;;1.65;1.55;;;18.80;91.60;;;;;;5088800;28;20023;-68
2023/07/01 09:00:52;;;;;;;1.75;1.65;;;18.80;91.60;;;;;;5083390;28;20052;-68
2023/07/01 09:03:18;;;;;;;2.85;2.00;;;18.80;91.70;;;;;;5088536;28;20016;-70
2023/07/01 09:05:43;;;;;;;1.80;1.70;;;18.80;91.90;;;;;;5082411;28;20589;-69
2023/07/01 09:08:09;;;;;;;2.35;2.15;;;18.80;92.10;;;;;;5085913;28;20043;-67
2023/07/01 09:10:35;;;;;;;2.40;1.90;;;18.80;92.00;;;;;;5086560;28;20020;-67
2023/07/01 09:13:14;;;;;;;1.70;1.60;;;18.80;92.00;;;;;;5087002;28;20058;-68
2023/07/01 09:15:43;;;;;;;1.52;1.42;;;18.90;92.00;;;;;;5086458;28;20012;-68
2023/07/01 09:18:25;;;;;;;1.83;1.73;;;18.90;92.00;;;;;;5086692;28;20418;-68
2023/07/01 09:20:54;;;;;;;2.42;2.22;;;19.00;92.00;;;;;;5079563;28;20413;-68
2023/07/01 09:23:29;;;;;;;1.65;1.55;;;19.00;92.10;;;;;;5085701;28;20023;-68
2023/07/01 09:26:15;;;;;;;2.08;1.88;;;18.90;92.10;;;;;;5081935;28;20752;-69
2023/07/01 09:28:53;;;;;;;1.70;1.60;;;18.90;92.30;;;;;;5084258;28;20059;-69
2023/07/01 09:31:18;;;;;;;1.83;1.63;;;18.90;92.30;;;;;;5082400;28;20036;-68
2023/07/01 09:33:58;;;;;;;1.50;1.40;;;18.90;92.30;;;;;;5082325;28;20125;-68
2023/07/01 09:36:25;;;;;;;2.30;2.00;;;19.00;92.40;;;;;;5085751;28;20020;-68
2023/07/01 09:38:52;;;;;;;1.80;1.70;;;19.10;92.40;;;;;;5082205;28;21112;-69
2023/07/01 09:41:20;;;;;;;2.40;2.20;;;19.10;92.30;;;;;;5083190;28;20028;-69
2023/07/01 09:43:48;;;;;;;1.85;1.75;;;19.10;92.40;;;;;;5082559;28;20032;-68
2023/07/01 09:46:14;;;;;;;2.00;1.90;;;19.00;92.50;;;;;;5087249;28;20127;-68
2023/07/01 09:48:51;;;;;;;1.50;1.40;;;19.10;92.50;;;;;;5079613;28;20035;-68
2023/07/01 09:51:17;;;;;;;2.05;1.95;;;19.20;92.40;;;;;;5081704;28;20059;-69
2023/07/01 09:53:42;;;;;;;2.17;2.00;;;19.20;92.40;;;;;;5080653;28;20013;-69
2023/07/01 09:56:08;;;;;;;2.20;2.00;;;19.20;92.30;;;;;;5088350;28;20028;-69
2023/07/01 09:58:34;;;;;;;2.25;2.05;;;19.20;92.40;;;;;;5086158;28;20028;-68
2023/07/01 10:01:00;;;;;;;3.63;2.72;;;19.20;92.40;;;;;;5084662;28;20089;-69
2023/07/01 10:03:26;;;;;;;2.38;2.15;;;19.20;92.50;;;;;;5086841;28;20051;-68
2023/07/01 10:05:52;;;;;;;2.55;2.35;;;19.20;92.40;;;;;;5090466;28;20115;-68
2023/07/01 10:08:18;;;;;;;2.40;2.20;;;19.30;92.40;;;;;;5086231;28;20031;-68
2023/07/01 10:10:52;;;;;;;2.58;2.38;;;19.40;92.30;;;;;;5079202;28;20044;-68
2023/07/01 10:13:20;;;;;;;2.65;2.42;;;19.40;92.20;;;;;;5084732;28;20549;-69
2023/07/01 10:15:46;;;;;;;2.50;2.30;;;19.40;92.20;;;;;;5079881;28;20021;-68
2023/07/01 10:18:22;;;;;;;2.28;2.08;;;19.30;92.20;;;;;;5081463;28;20043;-68
2023/07/01 10:20:49;;;;;;;2.55;2.35;;;19.40;92.30;;;;;;5077897;28;20060;-69
2023/07/01 10:23:15;;;;;;;2.58;2.38;;;19.40;92.20;;;;;;5082800;28;20031;-69
2023/07/01 10:25:41;;;;;;;3.40;2.70;;;19.40;92.20;;;;;;5083338;28;20016;-68
2023/07/01 10:28:13;;;;;;;2.50;2.30;;;19.40;92.30;;;;;;5083188;28;20068;-69
2023/07/01 10:30:42;;;;;;;2.97;2.53;;;19.40;92.30;;;;;;5087291;28;20052;-67
2023/07/01 10:33:30;;;;;;;2.55;2.35;;;19.50;92.30;;;;;;5082738;28;20032;-68
2023/07/01 10:36:06;;;;;;;3.35;2.88;;;19.50;92.30;;;;;;5084793;28;20046;-68
2023/07/01 10:38:34;;;;;;;2.60;2.40;;;19.50;92.30;;;;;;5089921;28;20431;-68
2023/07/01 10:41:00;;;;;;;3.08;2.78;;;19.50;92.40;;;;;;5085709;28;20020;-68
2023/07/01 10:43:36;;;;;;;2.40;2.20;;;19.50;92.40;;;;;;5081731;28;20024;-69
2023/07/01 10:46:21;;;;;;;3.17;2.50;;;19.50;92.50;;;;;;5081150;28;20028;-69
2023/07/01 10:49:02;;;;;;;4.00;2.65;;;19.60;92.40;;;;;;5078729;28;20036;-68
2023/07/01 10:51:48;;;;;;;2.47;2.28;;;19.60;92.50;;;;;;5082416;28;20440;-68
2023/07/01 10:54:29;;;;;;;2.67;2.47;;;19.60;92.60;;;;;;5087324;28;20059;-68
2023/07/01 10:57:15;;;;;;;2.60;2.40;;;19.60;92.60;;;;;;5078387;28;20024;-69
2023/07/01 10:59:42;;;;;;;3.08;2.70;;;19.70;92.60;;;;;;5081948;28;20039;-68
2023/07/01 11:02:35;;;;;;;3.65;3.33;;;19.70;92.60;;;;;;5076318;28;20008;-68
2023/07/01 11:05:03;;;;;;;3.00;2.70;;;19.70;92.60;;;;;;5077376;28;20052;-68
2023/07/01 11:07:29;;;;;;;2.92;2.65;;;19.80;92.60;;;;;;5092818;28;20024;-68
2023/07/01 11:09:55;;;;;;;3.30;3.00;;;19.80;92.60;;;;;;5082921;28;20127;-69
2023/07/01 11:12:23;;;;;;;3.00;2.50;;;19.80;92.70;;;;;;5085097;28;20028;-68
2023/07/01 11:14:51;;;;;;;4.10;3.33;;;19.90;92.60;;;;;;5081993;28;20095;-69
2023/07/01 11:17:19;;;;;;;3.58;3.28;;;19.90;92.70;;;;;;5090440;28;20077;-68
2023/07/01 11:19:45;;;;;;;4.30;3.90;;;19.90;92.70;;;;;;5078222;28;20045;-69
2023/07/01 11:22:13;;;;;;;3.80;3.45;;;19.90;92.70;;;;;;5085720;28;20028;-68
2023/07/01 11:24:39;;;;;;;4.53;4.00;;;20.00;92.70;;;;;;5084222;28;20095;-69
2023/07/01 11:27:08;;;;;;;3.38;3.03;;;20.00;92.60;;;;;;5084958;28;20028;-68
2023/07/01 11:29:34;;;;;;;5.70;4.55;;;20.10;92.60;;;;;;5087926;28;20885;-68
2023/07/01 11:32:04;;;;;;;4.40;4.00;;;20.10;92.60;;;;;;5088107;28;20042;-68
2023/07/01 11:34:30;;;;;;;4.40;4.00;;;20.10;92.70;;;;;;5089244;28;20012;-68
2023/07/01 11:36:57;;;;;;;4.53;3.42;;;20.20;92.70;;;;;;5086794;28;20506;-69
2023/07/01 11:39:24;;;;;;;5.00;4.15;;;20.30;92.60;;;;;;5086204;28;20101;-69
2023/07/01 11:41:55;;;;;;;4.35;3.78;;;20.40;92.50;;;;;;5092165;28;20142;-69
2023/07/01 11:44:22;;;;;;;5.07;3.85;;;20.60;92.40;;;;;;5085008;28;20038;-68
2023/07/01 11:46:49;;;;;;;4.57;3.70;;;20.70;92.20;;;;;;5087729;28;20016;-69
2023/07/01 11:49:23;;;;;;;4.35;3.95;;;20.70;92.00;;;;;;5086091;28;20585;-69
2023/07/01 11:51:53;;;;;;;4.55;4.07;;;20.80;92.00;;;;;;5090352;28;20027;-68
2023/07/01 11:54:21;;;;;;;4.13;3.55;;;20.80;92.00;;;;;;5084045;28;20052;-68
2023/07/01 11:56:47;;;;;;;4.65;3.83;;;20.80;92.00;;;;;;5088680;28;20085;-69
2023/07/01 11:59:30;;;;;;;4.28;3.85;;;20.80;92.10;;;;;;5086440;28;20020;-68
2023/07/01 12:01:56;;;;;;;4.47;3.97;;;20.80;92.10;;;;;;5091066;28;20879;-69
2023/07/01 12:04:23;;;;;;;4.55;4.10;;;20.70;92.40;;;;;;5091661;28;20019;-68
2023/07/01 12:06:48;;;;;;;4.60;4.13;;;20.70;92.10;;;;;;5090304;28;20020;-67
2023/07/01 12:09:28;;;;;;;5.07;4.57;;;20.70;92.20;;;;;;5086444;28;20701;-68
2023/07/01 12:11:54;;;;;;;4.90;4.40;;;20.70;92.20;;;;;;5088682;28;20028;-68
2023/07/01 12:14:23;;;;;;;4.80;4.40;;;20.60;92.30;;;;;;5083267;28;20023;-69
2023/07/01 12:16:50;;;;;;;4.53;4.13;;;20.60;92.40;;;;;;5088504;28;20024;-67
2023/07/01 12:19:17;;;;;;;5.00;4.60;;;20.50;92.60;;;;;;5088811;28;20092;-69
2023/07/01 12:21:43;;;;;;;4.72;4.22;;;20.50;92.50;;;;;;5090534;27;20556;-68
2023/07/01 12:24:26;;;;;;;4.70;4.30;;;20.50;92.50;;;;;;5088953;28;20499;-68
2023/07/01 12:26:57;;;;;;;4.22;3.83;;;20.40;92.50;;;;;;5090865;28;20039;-68
2023/07/01 12:29:23;;;;;;;4.10;3.70;;;20.40;92.60;;;;;;5092651;28;20039;-69
2023/07/01 12:31:49;;;;;;;3.10;2.90;;;20.40;92.70;;;;;;5087554;28;20036;-67
2023/07/01 12:34:15;;;;;;;3.30;3.00;;;20.40;92.80;;;;;;5085890;28;20027;-68
2023/07/01 12:36:45;;;;;;;2.80;2.60;;;20.50;92.80;;;;;;5089441;28;20059;-68
2023/07/01 12:39:13;;;;;;;2.67;2.47;;;20.70;92.60;;;;;;5090126;28;20032;-68
2023/07/01 12:41:39;;;;;;;2.70;2.50;;;20.90;92.50;;;;;;5089401;28;20079;-69
2023/07/01 12:44:08;;;;;;;2.58;2.38;;;21.20;92.20;;;;;;5090349;28;20028;-69
2023/07/01 12:46:33;;;;;;;2.72;2.53;;;21.30;92.00;;;;;;5083144;28;20111;-67
2023/07/01 12:49:03;;;;;;;2.67;2.47;;;21.40;91.70;;;;;;5083388;28;20194;-68
2023/07/01 12:51:32;;;;;;;2.70;2.50;;;21.50;91.50;;;;;;5081519;28;20028;-69